Terminal Aerodrome Forecast
Issued by NWS

Home | Current Version | Previous Version | Graphics & Text | Print | Product List | Glossary On
Versions: 1 2 3 4 5 6 7 8 9 10 11 12 13 14 15 16 17 18
000
FTUS43 KGLD 301124
TAFMCK
TAF
KMCK 301124Z 3012/3112 VRB04KT P6SM SCT250
     FM301400 20008KT P6SM SCT250
     FM302100 18012KT P6SM VCTS SCT060CB
     FM310000 19010KT 5SM -TSRA BKN050CB
     FM310600 26007KT P6SM VCTS BKN080CB
     FM310800 34008KT P6SM VCSH BKN100=

USA.gov is the U.S. government's official web portal to all federal, state and local government web resources and services.